Time;durP1;ratioP1;P1;durP2;ratioP2;P2;SDS_P1;SDS_P2;PMS_P1;PMS_P2;Temp;Humidity;BMP_temperature;BMP_pressure;BME280_temperature;BME280_humidity;BME280_pressure;Samples;Min_cycle;Max_cycle;Signal;HPM_P1;HPM_P2
2023/09/24 00:00:20;;;;;;;6.10;5.60;;;;;;;;;;4943657;28;20223;-82
2023/09/24 00:02:49;;;;;;;5.10;4.60;;;;;;;;;;4939622;28;20235;-83
2023/09/24 00:05:17;;;;;;;4.97;4.47;;;;;;;;;;4922925;28;20225;-84
2023/09/24 00:07:42;;;;;;;5.63;5.13;;;;;;;;;;4936833;28;20234;-83
2023/09/24 00:10:08;;;;;;;5.57;4.97;;;;;;;;;;4910322;28;20231;-82
2023/09/24 00:12:33;;;;;;;4.93;4.53;;;;;;;;;;4930405;29;20288;-82
2023/09/24 00:14:59;;;;;;;4.87;4.47;;;;;;;;;;4944206;28;20241;-83
2023/09/24 00:17:25;;;;;;;6.40;4.57;;;;;;;;;;4961543;28;20214;-83
2023/09/24 00:19:51;;;;;;;4.77;4.37;;;;;;;;;;4960074;28;20241;-83
2023/09/24 00:22:18;;;;;;;5.20;4.80;;;;;;;;;;4940646;28;20223;-83
2023/09/24 00:24:46;;;;;;;5.70;5.20;;;;;;;;;;4960402;28;20233;-84
2023/09/24 00:27:12;;;;;;;5.60;5.27;;;;;;;;;;4928837;28;20718;-83
2023/09/24 00:29:38;;;;;;;5.50;5.00;;;;;;;;;;4959546;28;20235;-83
2023/09/24 00:32:03;;;;;;;5.23;4.83;;;;;;;;;;4942170;28;20373;-83
2023/09/24 00:34:29;;;;;;;5.30;4.90;;;;;;;;;;4957950;28;20237;-84
2023/09/24 00:36:57;;;;;;;5.13;4.73;;;;;;;;;;4973880;28;20237;-84
2023/09/24 00:39:25;;;;;;;5.10;4.70;;;;;;;;;;4929548;28;20294;-80
2023/09/24 00:41:55;;;;;;;4.70;4.40;;;;;;;;;;4956656;28;20227;-84
2023/09/24 00:44:20;;;;;;;5.57;4.97;;;;;;;;;;4953628;28;20220;-82
2023/09/24 00:46:48;;;;;;;5.27;4.87;;;;;;;;;;4968163;28;20231;-81
2023/09/24 00:49:21;;;;;;;6.63;5.93;;;;;;;;;;4945118;28;20214;-83
2023/09/24 00:51:48;;;;;;;8.27;7.20;;;;;;;;;;4952234;28;20274;-82
2023/09/24 00:54:16;;;;;;;8.87;8.03;;;;;;;;;;4940106;28;20318;-86
2023/09/24 00:56:46;;;;;;;9.23;8.53;;;;;;;;;;4942604;28;20281;-83
2023/09/24 00:59:15;;;;;;;10.13;9.23;;;;;;;;;;4953126;28;20277;-83
2023/09/24 01:01:43;;;;;;;9.53;8.57;;;;;;;;;;4944402;28;20256;-84
2023/09/24 01:04:12;;;;;;;9.33;8.53;;;;;;;;;;4944487;28;20233;-84
2023/09/24 01:06:39;;;;;;;9.90;9.03;;;;;;;;;;4915184;29;20226;-82
2023/09/24 01:09:08;;;;;;;12.80;11.47;;;;;;;;;;4940435;28;20219;-82
2023/09/24 01:11:38;;;;;;;13.43;12.07;;;;;;;;;;4930034;28;20241;-82
2023/09/24 01:14:04;;;;;;;17.63;14.07;;;;;;;;;;4955677;28;20382;-83
2023/09/24 01:16:37;;;;;;;20.17;14.87;;;;;;;;;;4958828;28;20354;-81
2023/09/24 01:19:05;;;;;;;17.60;15.73;;;;;;;;;;4957110;28;20235;-82
2023/09/24 01:21:38;;;;;;;18.87;15.80;;;;;;;;;;4954546;29;20222;-83
2023/09/24 01:24:07;;;;;;;18.77;16.77;;;;;;;;;;4951482;28;20227;-83
2023/09/24 01:26:34;;;;;;;18.53;16.63;;;;;;;;;;4926927;29;20231;-85
2023/09/24 01:29:00;;;;;;;10.67;8.83;;;;;;;;;;4943686;28;20278;-85
2023/09/24 01:31:26;;;;;;;12.23;11.03;;;;;;;;;;4958465;28;20269;-85
2023/09/24 01:33:55;;;;;;;12.27;9.70;;;;;;;;;;4949787;28;20222;-80
2023/09/24 01:36:23;;;;;;;11.30;9.57;;;;;;;;;;4960668;28;20225;-85
2023/09/24 01:38:53;;;;;;;14.43;10.63;;;;;;;;;;4942651;29;20242;-85
2023/09/24 01:41:25;;;;;;;35.80;17.40;;;;;;;;;;4914102;28;20299;-80
2023/09/24 01:43:53;;;;;;;20.43;18.23;;;;;;;;;;4947332;28;20225;-86
2023/09/24 01:46:20;;;;;;;77.80;20.83;;;;;;;;;;4925293;28;20211;-85
2023/09/24 01:48:54;;;;;;;26.00;19.67;;;;;;;;;;4957016;28;20242;-82
2023/09/24 01:51:20;;;;;;;17.00;15.20;;;;;;;;;;4944839;28;20234;-86
2023/09/24 01:53:47;;;;;;;21.87;15.10;;;;;;;;;;4945168;29;20219;-85
2023/09/24 01:56:14;;;;;;;24.10;17.50;;;;;;;;;;4924678;28;20215;-84
2023/09/24 01:58:39;;;;;;;24.40;13.43;;;;;;;;;;4930952;29;20232;-84
2023/09/24 02:01:06;;;;;;;30.40;20.30;;;;;;;;;;4924747;28;20342;-87
2023/09/24 02:03:35;;;;;;;26.13;20.17;;;;;;;;;;4939983;28;20277;-86
2023/09/24 02:06:00;;;;;;;26.27;19.83;;;;;;;;;;4938282;28;20231;-85
2023/09/24 02:08:30;;;;;;;32.67;22.53;;;;;;;;;;4906535;28;20605;-85
2023/09/24 02:10:56;;;;;;;63.30;21.53;;;;;;;;;;4926061;29;20244;-85
2023/09/24 02:13:21;;;;;;;61.20;23.33;;;;;;;;;;4907708;28;20211;-84
2023/09/24 02:15:54;;;;;;;44.50;23.70;;;;;;;;;;4935310;28;20236;-84
2023/09/24 02:18:19;;;;;;;73.10;25.50;;;;;;;;;;4920611;28;20226;-86
2023/09/24 02:20:51;;;;;;;39.00;24.70;;;;;;;;;;4947083;28;20235;-86
2023/09/24 02:23:17;;;;;;;40.43;25.07;;;;;;;;;;4946402;28;20263;-86
2023/09/24 02:25:45;;;;;;;86.00;28.63;;;;;;;;;;4926703;28;20691;-85
2023/09/24 02:28:18;;;;;;;106.27;27.17;;;;;;;;;;4929438;28;20274;-83
2023/09/24 02:30:46;;;;;;;92.60;27.37;;;;;;;;;;4941972;29;20277;-83
2023/09/24 02:33:17;;;;;;;69.23;27.23;;;;;;;;;;4934262;28;20238;-83
2023/09/24 02:35:45;;;;;;;57.50;28.97;;;;;;;;;;4945771;28;20235;-84
2023/09/24 02:38:11;;;;;;;78.77;27.10;;;;;;;;;;4931856;28;20215;-85
2023/09/24 02:40:38;;;;;;;78.77;28.60;;;;;;;;;;4948903;28;20310;-85
2023/09/24 02:43:07;;;;;;;67.47;28.20;;;;;;;;;;4920877;28;20225;-85
2023/09/24 02:45:35;;;;;;;55.27;28.67;;;;;;;;;;4918749;29;20242;-84
2023/09/24 02:48:00;;;;;;;45.20;28.60;;;;;;;;;;4925831;28;20237;-85
2023/09/24 02:50:29;;;;;;;69.70;28.53;;;;;;;;;;4934616;28;20886;-84
2023/09/24 02:53:03;;;;;;;63.00;27.47;;;;;;;;;;4952527;28;20223;-84
2023/09/24 02:55:29;;;;;;;63.00;26.03;;;;;;;;;;4906010;29;20259;-84
2023/09/24 02:57:55;;;;;;;45.50;25.83;;;;;;;;;;4926295;28;20753;-84
2023/09/24 03:00:36;;;;;;;53.00;26.20;;;;;;;;;;4936085;28;20270;-85
2023/09/24 03:03:05;;;;;;;44.93;26.90;;;;;;;;;;4937700;28;20223;-83
2023/09/24 03:05:35;;;;;;;60.40;26.80;;;;;;;;;;4937275;28;20226;-85
2023/09/24 03:08:05;;;;;;;56.40;26.80;;;;;;;;;;4936952;29;20763;-86
2023/09/24 03:10:32;;;;;;;32.03;25.27;;;;;;;;;;4918665;28;20223;-84
2023/09/24 03:12:58;;;;;;;43.63;25.17;;;;;;;;;;4937617;29;20257;-84
2023/09/24 03:15:28;;;;;;;33.50;24.97;;;;;;;;;;4937411;28;20301;-85
2023/09/24 03:17:58;;;;;;;32.33;25.37;;;;;;;;;;4949274;28;20226;-85
2023/09/24 03:20:27;;;;;;;44.67;26.57;;;;;;;;;;4906497;28;20715;-85
2023/09/24 03:22:58;;;;;;;41.07;26.03;;;;;;;;;;4941631;28;20225;-84
2023/09/24 03:25:25;;;;;;;69.77;26.23;;;;;;;;;;4925006;29;20227;-85
2023/09/24 03:27:57;;;;;;;62.67;26.33;;;;;;;;;;4937689;29;20592;-84
2023/09/24 03:30:22;;;;;;;39.30;23.97;;;;;;;;;;4939771;28;20223;-83
2023/09/24 03:32:49;;;;;;;51.07;24.30;;;;;;;;;;4938873;28;21050;-85
2023/09/24 03:35:19;;;;;;;51.57;22.77;;;;;;;;;;4938184;28;20219;-84
2023/09/24 03:37:49;;;;;;;40.70;23.87;;;;;;;;;;4949303;28;20466;-85
2023/09/24 03:40:18;;;;;;;37.57;23.17;;;;;;;;;;4939316;28;20234;-84
2023/09/24 03:42:44;;;;;;;42.97;24.13;;;;;;;;;;4938133;28;20262;-86
2023/09/24 03:45:11;;;;;;;30.20;24.53;;;;;;;;;;4939995;28;20231;-85
2023/09/24 03:47:37;;;;;;;40.93;25.00;;;;;;;;;;4905856;29;20242;-85
2023/09/24 03:50:06;;;;;;;38.30;24.30;;;;;;;;;;4921243;28;20243;-84
2023/09/24 03:52:37;;;;;;;26.80;23.97;;;;;;;;;;4923197;29;20314;-84
2023/09/24 03:55:05;;;;;;;68.27;23.77;;;;;;;;;;4919285;29;20757;-84
2023/09/24 03:57:31;;;;;;;39.37;24.67;;;;;;;;;;4938305;28;20226;-84
2023/09/24 04:04:00;;;;;;;41.67;23.47;;;;;;;;;;4947363;28;20238;-83
2023/09/24 04:06:35;;;;;;;33.57;24.33;;;;;;;;;;4935036;28;20776;-84
2023/09/24 04:09:00;;;;;;;90.10;24.10;;;;;;;;;;4931763;28;20254;-85
2023/09/24 04:11:27;;;;;;;27.37;23.43;;;;;;;;;;4921006;28;20218;-85
2023/09/24 04:13:55;;;;;;;42.57;21.93;;;;;;;;;;4934395;28;20214;-85
2023/09/24 04:16:24;;;;;;;43.37;20.47;;;;;;;;;;4919221;28;20588;-85
2023/09/24 04:18:55;;;;;;;48.43;19.47;;;;;;;;;;4936646;28;20242;-85
2023/09/24 04:21:20;;;;;;;53.37;21.23;;;;;;;;;;4930283;28;20230;-84
2023/09/24 04:23:48;;;;;;;39.77;20.97;;;;;;;;;;4940713;28;20881;-84
2023/09/24 04:26:23;;;;;;;40.67;20.27;;;;;;;;;;4936821;28;20255;-84
2023/09/24 04:28:51;;;;;;;26.40;20.47;;;;;;;;;;4931136;29;20262;-83
2023/09/24 04:31:17;;;;;;;30.57;19.90;;;;;;;;;;4946277;28;20215;-86
2023/09/24 04:33:44;;;;;;;34.20;21.13;;;;;;;;;;4940466;29;20237;-85
2023/09/24 04:36:10;;;;;;;31.53;20.47;;;;;;;;;;4952877;28;20697;-84
2023/09/24 04:38:36;;;;;;;37.33;21.50;;;;;;;;;;4940092;29;20231;-85
2023/09/24 04:41:05;;;;;;;23.20;21.10;;;;;;;;;;4938693;28;20239;-85
2023/09/24 04:43:30;;;;;;;35.63;21.00;;;;;;;;;;4921392;29;20347;-85
2023/09/24 04:45:56;;;;;;;47.90;22.10;;;;;;;;;;4954663;28;20341;-85
2023/09/24 04:48:24;;;;;;;27.73;20.20;;;;;;;;;;4910276;28;20610;-84
2023/09/24 04:50:55;;;;;;;27.57;20.60;;;;;;;;;;4957648;28;20223;-84
2023/09/24 04:53:23;;;;;;;80.20;20.40;;;;;;;;;;4957207;28;21729;-86
2023/09/24 04:55:50;;;;;;;34.77;19.90;;;;;;;;;;4941608;29;20226;-86
2023/09/24 04:58:21;;;;;;;58.33;20.97;;;;;;;;;;4941122;28;20227;-84
2023/09/24 05:00:47;;;;;;;40.67;19.30;;;;;;;;;;4958650;28;20234;-86
2023/09/24 05:03:22;;;;;;;34.90;19.77;;;;;;;;;;4966498;28;20282;-83
2023/09/24 05:05:52;;;;;;;58.87;19.53;;;;;;;;;;4955654;29;20230;-82
2023/09/24 05:08:18;;;;;;;35.70;19.10;;;;;;;;;;4955115;28;20230;-83
2023/09/24 05:10:44;;;;;;;30.53;16.93;;;;;;;;;;4972496;28;21095;-81
2023/09/24 05:13:11;;;;;;;77.37;18.67;;;;;;;;;;4967031;28;20530;-86
2023/09/24 05:15:39;;;;;;;67.73;18.00;;;;;;;;;;4950837;28;20274;-86
2023/09/24 05:18:05;;;;;;;46.83;16.67;;;;;;;;;;4934800;28;20694;-85
2023/09/24 05:20:30;;;;;;;37.77;16.50;;;;;;;;;;4941999;28;20225;-86
2023/09/24 05:23:01;;;;;;;78.67;16.77;;;;;;;;;;4959050;28;20211;-86
2023/09/24 05:25:29;;;;;;;101.83;16.83;;;;;;;;;;4962259;28;20231;-86
2023/09/24 05:27:55;;;;;;;107.30;15.80;;;;;;;;;;4961587;28;20622;-84
2023/09/24 05:30:21;;;;;;;43.50;13.47;;;;;;;;;;4944616;28;20266;-86
2023/09/24 05:32:46;;;;;;;66.23;13.63;;;;;;;;;;4961490;28;20211;-82
2023/09/24 05:35:16;;;;;;;68.03;13.20;;;;;;;;;;4967435;28;20230;-85
2023/09/24 05:37:42;;;;;;;109.57;13.43;;;;;;;;;;4946581;29;20223;-83
2023/09/24 05:40:09;;;;;;;30.27;11.73;;;;;;;;;;4936933;28;20238;-85
2023/09/24 05:42:37;;;;;;;71.50;12.93;;;;;;;;;;4933632;28;20230;-85
2023/09/24 05:45:03;;;;;;;63.57;13.33;;;;;;;;;;4947131;28;20246;-85
2023/09/24 05:47:31;;;;;;;76.00;12.90;;;;;;;;;;4934158;29;20242;-82
2023/09/24 05:49:59;;;;;;;129.70;13.20;;;;;;;;;;4976791;28;20239;-83
2023/09/24 05:52:24;;;;;;;58.83;11.77;;;;;;;;;;4945539;28;20225;-85
2023/09/24 05:54:51;;;;;;;85.77;13.07;;;;;;;;;;4953402;28;20293;-86
2023/09/24 05:57:19;;;;;;;109.67;14.00;;;;;;;;;;4960132;28;20243;-83
2023/09/24 05:59:47;;;;;;;128.20;13.90;;;;;;;;;;4936069;29;20246;-84
2023/09/24 06:02:14;;;;;;;27.23;12.13;;;;;;;;;;4953050;28;20230;-87
2023/09/24 06:04:42;;;;;;;38.10;12.20;;;;;;;;;;4947193;28;20250;-86
2023/09/24 06:07:08;;;;;;;71.27;13.60;;;;;;;;;;4946600;28;20246;-85
2023/09/24 06:09:38;;;;;;;21.33;10.83;;;;;;;;;;4961651;28;20291;-86
2023/09/24 06:12:04;;;;;;;42.07;11.40;;;;;;;;;;4958339;28;20241;-84
2023/09/24 06:14:31;;;;;;;28.97;11.57;;;;;;;;;;4927084;29;20688;-86
2023/09/24 06:16:56;;;;;;;75.83;12.13;;;;;;;;;;4941694;28;20226;-84
2023/09/24 06:19:25;;;;;;;145.50;14.77;;;;;;;;;;4952476;28;20303;-85
2023/09/24 06:21:53;;;;;;;26.73;11.47;;;;;;;;;;4941446;29;20714;-85
2023/09/24 06:24:20;;;;;;;59.37;11.57;;;;;;;;;;4951477;28;20223;-85
2023/09/24 06:26:45;;;;;;;39.90;11.13;;;;;;;;;;4939757;28;20222;-85
2023/09/24 06:29:11;;;;;;;61.93;11.07;;;;;;;;;;4922206;28;20580;-86
2023/09/24 06:31:38;;;;;;;26.70;10.43;;;;;;;;;;4955828;28;20227;-86
2023/09/24 06:34:03;;;;;;;74.40;11.97;;;;;;;;;;4947861;28;20227;-85
2023/09/24 06:36:29;;;;;;;39.10;10.70;;;;;;;;;;4921948;29;20317;-84
2023/09/24 06:38:56;;;;;;;39.80;11.63;;;;;;;;;;4954665;28;20234;-84
2023/09/24 06:41:22;;;;;;;46.63;10.93;;;;;;;;;;4950284;28;20277;-85
2023/09/24 06:43:47;;;;;;;48.80;12.17;;;;;;;;;;4942442;29;20226;-85
2023/09/24 06:46:19;;;;;;;34.27;10.47;;;;;;;;;;4942498;28;20282;-86
2023/09/24 06:48:46;;;;;;;28.70;11.33;;;;;;;;;;4929871;29;20238;-85
2023/09/24 06:51:15;;;;;;;36.87;10.00;;;;;;;;;;4957475;28;20234;-83
2023/09/24 06:53:41;;;;;;;46.90;10.97;;;;;;;;;;4940282;29;20242;-84
2023/09/24 06:56:07;;;;;;;30.80;9.10;;;;;;;;;;4942647;28;20283;-84
2023/09/24 06:58:36;;;;;;;26.57;8.77;;;;;;;;;;4930452;29;20230;-85
2023/09/24 07:01:06;;;;;;;12.87;8.40;;;;;;;;;;4945933;28;20226;-85
2023/09/24 07:03:34;;;;;;;29.17;8.70;;;;;;;;;;4941905;29;20242;-87
2023/09/24 07:06:05;;;;;;;21.57;9.87;;;;;;;;;;4945621;28;20230;-83
2023/09/24 07:08:36;;;;;;;10.13;8.33;;;;;;;;;;4938852;28;20299;-85
2023/09/24 07:11:20;;;;;;;37.90;9.53;;;;;;;;;;4934693;29;21191;-82
2023/09/24 07:13:48;;;;;;;36.80;8.73;;;;;;;;;;4957444;28;20658;-84
2023/09/24 07:16:14;;;;;;;22.77;8.93;;;;;;;;;;4939924;28;20223;-87
2023/09/24 07:18:39;;;;;;;18.63;10.37;;;;;;;;;;4940991;28;20235;-85
2023/09/24 07:21:05;;;;;;;10.70;9.73;;;;;;;;;;4942118;28;20295;-85
2023/09/24 07:23:31;;;;;;;36.50;8.33;;;;;;;;;;4932538;28;20229;-85
2023/09/24 07:25:57;;;;;;;36.27;11.83;;;;;;;;;;4943534;28;20236;-86
2023/09/24 07:28:24;;;;;;;16.73;14.83;;;;;;;;;;4927204;28;21354;-84
2023/09/24 07:30:53;;;;;;;12.43;10.50;;;;;;;;;;4945399;28;20227;-84
2023/09/24 07:33:23;;;;;;;20.73;18.73;;;;;;;;;;4937904;28;20233;-85
2023/09/24 07:35:51;;;;;;;42.33;9.50;;;;;;;;;;4943056;29;20214;-83
2023/09/24 07:38:17;;;;;;;9.83;9.00;;;;;;;;;;4970165;28;20254;-82
2023/09/24 07:40:43;;;;;;;28.30;8.47;;;;;;;;;;4972203;28;20226;-82
2023/09/24 07:43:08;;;;;;;12.53;7.73;;;;;;;;;;4971900;28;20227;-82
2023/09/24 07:45:36;;;;;;;9.33;7.50;;;;;;;;;;4953655;28;20247;-80
2023/09/24 07:48:06;;;;;;;12.63;7.80;;;;;;;;;;4953538;28;20237;-81
2023/09/24 07:50:32;;;;;;;10.03;7.13;;;;;;;;;;4964187;28;20222;-80
2023/09/24 07:52:57;;;;;;;13.03;8.40;;;;;;;;;;4966928;28;20263;-82
2023/09/24 07:55:27;;;;;;;16.03;8.17;;;;;;;;;;4948268;28;20223;-81
2023/09/24 07:57:53;;;;;;;8.93;8.03;;;;;;;;;;4967159;28;20222;-83
2023/09/24 08:00:19;;;;;;;10.87;7.80;;;;;;;;;;4950451;28;20223;-85
2023/09/24 08:02:45;;;;;;;8.70;8.00;;;;;;;;;;4926172;29;20265;-84
2023/09/24 08:05:14;;;;;;;9.47;7.93;;;;;;;;;;4959930;28;20704;-84
2023/09/24 08:07:40;;;;;;;7.73;7.23;;;;;;;;;;4947480;28;20293;-85
2023/09/24 08:10:06;;;;;;;9.33;8.40;;;;;;;;;;4962120;28;20252;-83
2023/09/24 08:12:31;;;;;;;12.80;8.17;;;;;;;;;;4949671;29;20521;-86
2023/09/24 08:14:59;;;;;;;9.77;8.88;;;;;;;;;;4971736;28;20249;-87
2023/09/24 08:17:25;;;;;;;21.37;10.13;;;;;;;;;;4959680;28;20227;-83
2023/09/24 08:19:53;;;;;;;16.13;10.07;;;;;;;;;;4963912;28;20227;-83
2023/09/24 08:22:23;;;;;;;15.93;9.60;;;;;;;;;;4924266;28;20310;-82
2023/09/24 08:24:51;;;;;;;10.80;9.90;;;;;;;;;;4957914;29;20270;-81
2023/09/24 08:27:16;;;;;;;10.80;9.80;;;;;;;;;;4985622;28;20245;-87
2023/09/24 08:29:42;;;;;;;12.33;11.03;;;;;;;;;;4965872;28;20240;-85
2023/09/24 08:32:07;;;;;;;15.10;11.60;;;;;;;;;;4959524;28;20311;-82
2023/09/24 08:34:33;;;;;;;12.17;11.17;;;;;;;;;;4932183;29;20313;-85
2023/09/24 08:37:01;;;;;;;12.83;11.57;;;;;;;;;;4949853;28;20301;-86
2023/09/24 08:39:26;;;;;;;14.18;12.75;;;;;;;;;;4960915;28;20234;-86
2023/09/24 08:41:52;;;;;;;14.43;13.23;;;;;;;;;;4952852;29;20226;-83
2023/09/24 08:44:17;;;;;;;14.67;13.47;;;;;;;;;;4959710;28;20224;-79
2023/09/24 08:46:47;;;;;;;15.37;13.87;;;;;;;;;;4947443;28;20227;-78
2023/09/24 08:49:13;;;;;;;14.90;13.60;;;;;;;;;;4952265;28;20290;-80
2023/09/24 08:51:42;;;;;;;15.95;14.65;;;;;;;;;;4963630;28;20215;-79
2023/09/24 08:54:08;;;;;;;16.83;14.40;;;;;;;;;;4948941;28;20229;-80
2023/09/24 08:56:33;;;;;;;16.40;14.80;;;;;;;;;;4942645;29;20224;-79
2023/09/24 08:59:04;;;;;;;15.90;14.50;;;;;;;;;;4934498;29;20227;-79
2023/09/24 09:01:30;;;;;;;16.43;14.83;;;;;;;;;;4937861;28;20219;-80
2023/09/24 09:04:00;;;;;;;16.23;14.67;;;;;;;;;;4956419;28;20731;-80
2023/09/24 09:06:37;;;;;;;16.40;14.70;;;;;;;;;;4946065;28;20246;-80
2023/09/24 09:09:03;;;;;;;15.43;13.93;;;;;;;;;;4945584;28;20308;-79
2023/09/24 09:11:49;;;;;;;16.13;14.70;;;;;;;;;;4933800;28;20223;-82
2023/09/24 09:14:34;;;;;;;17.77;16.02;;;;;;;;;;4958835;28;20227;-80
2023/09/24 09:17:00;;;;;;;16.70;15.13;;;;;;;;;;4961311;28;20227;-79
2023/09/24 09:19:30;;;;;;;18.88;15.63;;;;;;;;;;4969360;28;20597;-80
2023/09/24 09:22:15;;;;;;;17.73;15.93;;;;;;;;;;4952072;28;20227;-78
2023/09/24 09:24:40;;;;;;;18.67;16.92;;;;;;;;;;4955150;28;20311;-79
2023/09/24 09:27:09;;;;;;;18.27;16.57;;;;;;;;;;4971349;28;22631;-81
2023/09/24 09:29:34;;;;;;;18.35;16.48;;;;;;;;;;4940889;29;20237;-79
2023/09/24 09:32:00;;;;;;;17.33;15.73;;;;;;;;;;4933300;29;20688;-79
2023/09/24 09:34:27;;;;;;;18.77;17.03;;;;;;;;;;4980063;28;20219;-82
2023/09/24 09:36:55;;;;;;;19.60;17.50;;;;;;;;;;4935445;29;20238;-81
2023/09/24 09:39:21;;;;;;;21.13;18.93;;;;;;;;;;4969265;28;20238;-82
2023/09/24 09:41:49;;;;;;;19.80;17.73;;;;;;;;;;4982082;28;20223;-79
2023/09/24 09:44:31;;;;;;;19.02;16.98;;;;;;;;;;4927511;28;20294;-78
2023/09/24 09:47:00;;;;;;;18.23;16.33;;;;;;;;;;4954949;28;20238;-80
2023/09/24 09:49:25;;;;;;;18.10;16.35;;;;;;;;;;4950148;28;20231;-80
2023/09/24 09:51:51;;;;;;;17.80;15.73;;;;;;;;;;4907509;29;20230;-80
2023/09/24 09:54:16;;;;;;;19.38;17.48;;;;;;;;;;4941546;28;20234;-81
2023/09/24 09:56:42;;;;;;;20.80;18.70;;;;;;;;;;4937054;29;20219;-78
2023/09/24 09:59:08;;;;;;;16.83;15.13;;;;;;;;;;4953199;28;20250;-79
2023/09/24 10:01:33;;;;;;;15.75;14.35;;;;;;;;;;4943174;28;20235;-80
2023/09/24 10:04:06;;;;;;;15.93;14.18;;;;;;;;;;4966126;28;20708;-78
2023/09/24 10:06:37;;;;;;;16.90;15.30;;;;;;;;;;4943024;28;20930;-79
2023/09/24 10:09:31;;;;;;;15.25;13.85;;;;;;;;;;4969431;28;20245;-80
2023/09/24 10:12:00;;;;;;;17.23;15.50;;;;;;;;;;4953155;28;20293;-81
2023/09/24 10:14:39;;;;;;;17.83;16.23;;;;;;;;;;4952444;28;20314;-81
2023/09/24 10:17:21;;;;;;;15.77;14.35;;;;;;;;;;4940381;28;20226;-82
2023/09/24 10:19:50;;;;;;;14.70;13.40;;;;;;;;;;4942351;28;20230;-79
2023/09/24 10:22:34;;;;;;;14.15;12.85;;;;;;;;;;4938437;28;20221;-81
2023/09/24 10:25:46;;;;;;;15.55;12.05;;;;;;;;;;4954150;28;20223;-79
2023/09/24 10:28:14;;;;;;;11.75;10.73;;;;;;;;;;4945021;28;20230;-79
2023/09/24 10:31:02;;;;;;;13.05;11.13;;;;;;;;;;4953836;28;20250;-81
2023/09/24 10:34:02;;;;;;;10.13;9.30;;;;;;;;;;4968278;28;20853;-80
2023/09/24 10:36:33;;;;;;;9.30;8.48;;;;;;;;;;4954316;28;20222;-80
2023/09/24 10:39:11;;;;;;;8.65;7.95;;;;;;;;;;4936046;29;20226;-80
2023/09/24 10:41:37;;;;;;;7.03;6.43;;;;;;;;;;4969680;28;20228;-80
2023/09/24 10:44:25;;;;;;;6.60;6.10;;;;;;;;;;4955065;28;20223;-80
2023/09/24 10:46:50;;;;;;;5.45;5.05;;;;;;;;;;4952300;28;20234;-80
2023/09/24 10:49:22;;;;;;;5.93;5.45;;;;;;;;;;4949113;28;20238;-79
2023/09/24 10:51:48;;;;;;;7.25;6.00;;;;;;;;;;4931718;28;20692;-81
2023/09/24 10:54:15;;;;;;;6.32;5.80;;;;;;;;;;4952416;28;20218;-80
2023/09/24 10:56:49;;;;;;;5.88;5.45;;;;;;;;;;4916776;29;20282;-80
2023/09/24 10:59:17;;;;;;;6.55;5.90;;;;;;;;;;4937053;28;20218;-79
2023/09/24 11:01:45;;;;;;;5.75;5.35;;;;;;;;;;4952301;28;20222;-78
2023/09/24 11:04:14;;;;;;;5.20;4.72;;;;;;;;;;4938572;28;20225;-79
2023/09/24 11:06:42;;;;;;;3.97;3.67;;;;;;;;;;4960318;28;20558;-77
2023/09/24 11:09:20;;;;;;;4.13;3.70;;;;;;;;;;4953136;28;20219;-77
2023/09/24 11:11:45;;;;;;;4.20;3.90;;;;;;;;;;4932758;29;20254;-78
2023/09/24 11:14:22;;;;;;;3.75;3.40;;;;;;;;;;4952457;28;20906;-80
2023/09/24 11:16:51;;;;;;;3.35;3.15;;;;;;;;;;4953012;28;20257;-80
2023/09/24 11:19:41;;;;;;;3.13;2.83;;;;;;;;;;4968547;28;20313;-80
2023/09/24 11:22:21;;;;;;;2.55;2.35;;;;;;;;;;4951790;28;20309;-78
2023/09/24 11:25:10;;;;;;;2.28;2.10;;;;;;;;;;4953363;28;20222;-78
2023/09/24 11:27:52;;;;;;;3.42;2.38;;;;;;;;;;4968506;28;20219;-80
2023/09/24 11:30:19;;;;;;;2.80;2.60;;;;;;;;;;4950372;28;20336;-80
2023/09/24 11:32:51;;;;;;;3.15;2.25;;;;;;;;;;4952540;28;20222;-79
2023/09/24 11:35:18;;;;;;;2.95;2.35;;;;;;;;;;4945670;28;20219;-79
2023/09/24 11:37:54;;;;;;;2.05;1.60;;;;;;;;;;4952331;28;20676;-78
2023/09/24 11:40:32;;;;;;;2.55;2.28;;;;;;;;;;4953568;28;20293;-78
2023/09/24 11:42:59;;;;;;;2.00;1.80;;;;;;;;;;4951773;28;20218;-79
2023/09/24 11:45:43;;;;;;;2.53;2.00;;;;;;;;;;4947912;28;20215;-80
2023/09/24 11:48:10;;;;;;;2.08;1.95;;;;;;;;;;4967397;28;20218;-79
2023/09/24 11:50:37;;;;;;;1.90;1.58;;;;;;;;;;4953019;28;20849;-78
2023/09/24 11:53:03;;;;;;;2.28;2.08;;;;;;;;;;4951508;28;20218;-80
2023/09/24 11:55:28;;;;;;;3.50;2.10;;;;;;;;;;4955356;28;20361;-78
2023/09/24 11:57:56;;;;;;;3.38;3.08;;;;;;;;;;4938396;28;20238;-78
2023/09/24 12:00:22;;;;;;;3.22;2.92;;;;;;;;;;4950140;28;20219;-79
2023/09/24 12:02:48;;;;;;;2.33;2.13;;;;;;;;;;4924718;28;20742;-81
2023/09/24 12:05:16;;;;;;;1.77;1.67;;;;;;;;;;4938667;28;20890;-80
2023/09/24 12:07:42;;;;;;;2.53;1.60;;;;;;;;;;4972889;28;20253;-80
2023/09/24 12:10:10;;;;;;;2.45;1.70;;;;;;;;;;4951353;28;20231;-79
2023/09/24 12:12:36;;;;;;;1.38;1.27;;;;;;;;;;4915946;29;20318;-80
2023/09/24 12:15:07;;;;;;;1.65;1.40;;;;;;;;;;4946600;28;20214;-80
2023/09/24 12:17:32;;;;;;;1.65;1.40;;;;;;;;;;4942709;28;20233;-81
2023/09/24 12:20:00;;;;;;;1.83;1.65;;;;;;;;;;4958322;28;20219;-81
2023/09/24 12:22:25;;;;;;;2.10;1.45;;;;;;;;;;4964574;28;20288;-80
2023/09/24 12:24:51;;;;;;;1.38;1.27;;;;;;;;;;4965943;28;20261;-79
2023/09/24 12:27:19;;;;;;;1.77;1.15;;;;;;;;;;4950970;28;20238;-81
2023/09/24 12:29:46;;;;;;;2.60;1.38;;;;;;;;;;4964433;28;20220;-79
2023/09/24 12:32:12;;;;;;;1.30;1.20;;;;;;;;;;4957761;28;20225;-80
2023/09/24 12:34:37;;;;;;;1.48;1.20;;;;;;;;;;4966788;28;20215;-79
2023/09/24 12:37:03;;;;;;;3.22;1.35;;;;;;;;;;4944523;28;20222;-81
2023/09/24 12:39:28;;;;;;;3.15;1.40;;;;;;;;;;4954617;28;20269;-80
2023/09/24 12:41:57;;;;;;;1.42;1.33;;;;;;;;;;4936686;28;20222;-79
2023/09/24 12:44:23;;;;;;;1.58;1.48;;;;;;;;;;4948488;28;20635;-78
2023/09/24 12:46:48;;;;;;;2.88;1.20;;;;;;;;;;4965356;28;20246;-78
2023/09/24 12:49:14;;;;;;;2.95;1.23;;;;;;;;;;4948744;28;20614;-79
2023/09/24 12:51:39;;;;;;;2.17;1.13;;;;;;;;;;4950701;28;20604;-78
2023/09/24 12:54:08;;;;;;;1.40;1.17;;;;;;;;;;4969692;28;20222;-80
2023/09/24 12:56:33;;;;;;;1.50;1.00;;;;;;;;;;4970890;28;20608;-79
2023/09/24 12:59:01;;;;;;;1.45;1.17;;;;;;;;;;4971069;28;20221;-79
2023/09/24 13:01:30;;;;;;;1.00;0.90;;;;;;;;;;4954296;28;20226;-77
2023/09/24 13:03:56;;;;;;;1.15;0.90;;;;;;;;;;4939269;28;20687;-79
2023/09/24 13:06:22;;;;;;;2.42;0.88;;;;;;;;;;4955336;28;20859;-78
2023/09/24 13:08:50;;;;;;;3.63;3.10;;;;;;;;;;4922027;29;20221;-80
2023/09/24 13:11:17;;;;;;;1.50;1.10;;;;;;;;;;4947789;28;20223;-79
2023/09/24 13:13:42;;;;;;;2.15;1.30;;;;;;;;;;4939945;28;20656;-79
2023/09/24 13:16:08;;;;;;;1.40;1.10;;;;;;;;;;4932563;28;20218;-80
2023/09/24 13:18:36;;;;;;;2.70;0.80;;;;;;;;;;4955432;28;20692;-79
2023/09/24 13:21:01;;;;;;;2.33;0.88;;;;;;;;;;4936602;28;20238;-80
2023/09/24 13:23:27;;;;;;;2.35;0.95;;;;;;;;;;4951077;28;20707;-79
2023/09/24 13:25:54;;;;;;;0.93;0.82;;;;;;;;;;4936754;29;20211;-79
2023/09/24 13:28:21;;;;;;;2.30;0.98;;;;;;;;;;4954263;28;20283;-79
2023/09/24 13:30:47;;;;;;;1.83;1.00;;;;;;;;;;4957120;28;20262;-80
2023/09/24 13:33:15;;;;;;;2.15;0.82;;;;;;;;;;4961984;28;20218;-78
2023/09/24 13:35:47;;;;;;;1.52;0.90;;;;;;;;;;4947855;28;20222;-79
2023/09/24 13:38:13;;;;;;;0.82;0.80;;;;;;;;;;4977781;28;20317;-82
2023/09/24 13:40:41;;;;;;;1.05;0.95;;;;;;;;;;4960516;28;20606;-77
2023/09/24 13:43:07;;;;;;;1.42;0.85;;;;;;;;;;4958898;28;20822;-80
2023/09/24 13:45:46;;;;;;;0.75;0.75;;;;;;;;;;4954477;28;20222;-79
2023/09/24 13:48:14;;;;;;;0.82;0.77;;;;;;;;;;4939337;28;20825;-78
2023/09/24 13:50:40;;;;;;;1.05;0.80;;;;;;;;;;4953071;28;20245;-81
2023/09/24 13:53:08;;;;;;;0.80;0.80;;;;;;;;;;4969775;28;20230;-78
2023/09/24 13:55:36;;;;;;;2.30;1.10;;;;;;;;;;4953262;28;20275;-80
2023/09/24 13:58:05;;;;;;;0.80;0.80;;;;;;;;;;4954210;28;20229;-79
2023/09/24 14:00:33;;;;;;;1.08;0.90;;;;;;;;;;4953646;28;20373;-78
2023/09/24 14:03:01;;;;;;;1.10;1.00;;;;;;;;;;4953129;28;20226;-78
2023/09/24 14:05:29;;;;;;;1.42;0.80;;;;;;;;;;4934679;28;20219;-79
2023/09/24 14:12:17;;;;;;;0.80;0.80;;;;;;;;;;4936888;28;20303;-78
2023/09/24 14:13:24;;;;;;;0.75;0.75;;;;;;;;;;4953827;28;20234;-77
2023/09/24 14:15:52;;;;;;;2.15;0.80;;;;;;;;;;4935381;29;20211;-78
2023/09/24 14:18:17;;;;;;;2.47;1.00;;;;;;;;;;4970339;28;20222;-78
2023/09/24 14:20:45;;;;;;;1.00;0.90;;;;;;;;;;4971488;28;20226;-80
2023/09/24 14:23:11;;;;;;;1.05;1.00;;;;;;;;;;4970410;28;20206;-80
2023/09/24 14:25:43;;;;;;;1.00;0.90;;;;;;;;;;4936830;28;20766;-78
2023/09/24 14:28:09;;;;;;;1.83;1.30;;;;;;;;;;4966005;28;20237;-80
2023/09/24 14:30:38;;;;;;;1.13;1.08;;;;;;;;;;4970218;28;20313;-78
2023/09/24 14:33:07;;;;;;;1.33;1.00;;;;;;;;;;4966001;28;20222;-79
2023/09/24 14:35:32;;;;;;;1.45;1.30;;;;;;;;;;4960691;28;20227;-78
2023/09/24 14:38:00;;;;;;;2.40;1.42;;;;;;;;;;4964821;28;20237;-78
2023/09/24 14:40:26;;;;;;;1.48;1.30;;;;;;;;;;4927370;28;20893;-78
2023/09/24 14:42:52;;;;;;;1.17;1.05;;;;;;;;;;4962376;28;20230;-79